Time;durP1;ratioP1;P1;durP2;ratioP2;P2;SDS_P1;SDS_P2;PMS_P1;PMS_P2;Temp;Humidity;BMP_temperature;BMP_pressure;BME280_temperature;BME280_humidity;BME280_pressure;Samples;Min_cycle;Max_cycle;Signal;HPM_P1;HPM_P2
2021/11/30 08:10:20;;;;;;;6.18;4.25;;;;;;;;;;10548592;27;20415;-84
2021/11/30 08:15:22;;;;;;;5.93;4.50;;;;;;;;;;10543072;28;20032;-84
2021/11/30 08:20:23;;;;;;;6.13;4.15;;;;;;;;;;10541551;28;20028;-83
2021/11/30 08:25:24;;;;;;;4.55;3.40;;;;;;;;;;10544531;28;20025;-83
2021/11/30 08:30:25;;;;;;;;;;;;;;;;;;10542518;28;20039;-80
2021/11/30 08:35:26;;;;;;;6.80;4.47;;;;;;;;;;10543375;28;19910;-83
2021/11/30 08:40:27;;;;;;;7.53;5.50;;;;;;;;;;10543310;28;20058;-81
2021/11/30 08:45:28;;;;;;;8.07;4.95;;;;;;;;;;10542280;28;20462;-81
2021/11/30 08:50:30;;;;;;;6.55;5.22;;;;;;;;;;10542897;28;20036;-81
2021/11/30 08:55:31;;;;;;;;;;;;;;;;;;10543455;28;20066;-82
2021/11/30 09:00:32;;;;;;;5.30;4.45;;;;;;;;;;10544581;28;19919;-82
2021/11/30 09:05:33;;;;;;;;;;;;;;;;;;10543550;28;20071;-82
2021/11/30 09:10:34;;;;;;;6.97;5.78;;;;;;;;;;10543347;28;19905;-82
2021/11/30 09:15:37;;;;;;;;;;;;;;;;;;10543736;28;20127;-83
2021/11/30 09:20:38;;;;;;;7.07;4.90;;;;;;;;;;10515487;28;19904;-82
2021/11/30 09:25:40;;;;;;;8.27;5.28;;;;;;;;;;10510209;28;20021;-82
2021/11/30 09:30:41;;;;;;;;;;;;;;;;;;10511785;28;20104;-83
2021/11/30 09:35:42;;;;;;;10.35;7.55;;;;;;;;;;10512889;28;19915;-82
2021/11/30 09:40:43;;;;;;;7.68;5.30;;;;;;;;;;10511207;28;20088;-82
2021/11/30 09:45:44;;;;;;;4.53;3.83;;;;;;;;;;10510884;28;20033;-82
2021/11/30 09:50:45;;;;;;;4.90;3.90;;;;;;;;;;10511466;28;20032;-82
2021/11/30 09:55:47;;;;;;;;;;;;;;;;;;10510542;28;20031;-82
2021/11/30 10:00:49;;;;;;;7.10;4.78;;;;;;;;;;10512661;28;19905;-82
2021/11/30 10:05:51;;;;;;;5.35;4.20;;;;;;;;;;10513551;28;20048;-84
2021/11/30 10:10:52;;;;;;;4.68;3.47;;;;;;;;;;10513764;28;20032;-83
2021/11/30 10:16:01;;;;;;;4.28;3.72;;;;;;;;;;10513356;28;20025;-85
2021/11/30 10:21:20;;;;;;;4.35;2.90;;;;;;;;;;10524225;28;20500;-81
2021/11/30 10:26:25;;;;;;;3.75;2.85;;;;;;;;;;10527032;28;20020;-83
2021/11/30 10:31:33;;;;;;;4.70;2.90;;;;;;;;;;10526624;28;20093;-82
2021/11/30 10:36:43;;;;;;;3.72;2.30;;;;;;;;;;10522213;28;20035;-81
2021/11/30 10:41:46;;;;;;;2.88;1.90;;;;;;;;;;10511424;28;20036;-84
2021/11/30 10:46:47;;;;;;;2.97;1.98;;;;;;;;;;10513186;28;20024;-84
2021/11/30 10:51:53;;;;;;;3.38;2.10;;;;;;;;;;10512685;28;20020;-84
2021/11/30 10:57:04;;;;;;;4.93;4.10;;;;;;;;;;10514364;28;20058;-83
2021/11/30 11:02:05;;;;;;;7.40;4.65;;;;;;;;;;10516789;28;20387;-85
2021/11/30 11:07:06;;;;;;;;;;;;;;;;;;10535903;28;20036;-82
2021/11/30 11:12:10;;;;;;;2.60;1.50;;;;;;;;;;10539322;28;19911;-85
2021/11/30 11:17:11;;;;;;;3.83;2.83;;;;;;;;;;10539191;28;20037;-83
2021/11/30 11:22:20;;;;;;;3.60;1.85;;;;;;;;;;10528951;28;20501;-84
2021/11/30 11:27:30;;;;;;;4.45;2.85;;;;;;;;;;10515800;28;20028;-84
2021/11/30 11:32:31;;;;;;;5.22;3.35;;;;;;;;;;10512379;28;20065;-83
2021/11/30 11:37:33;;;;;;;4.18;1.80;;;;;;;;;;10513627;28;20126;-84
2021/11/30 11:42:33;;;;;;;;;;;;;;;;;;10517929;28;20509;-80
2021/11/30 11:47:35;;;;;;;2.72;1.13;;;;;;;;;;10520239;28;19908;-81
2021/11/30 11:52:37;;;;;;;3.08;1.40;;;;;;;;;;10510837;28;20031;-85
2021/11/30 11:57:40;;;;;;;2.58;1.55;;;;;;;;;;10512857;28;20133;-85
2021/11/30 12:02:54;;;;;;;2.28;1.33;;;;;;;;;;10513051;28;20029;-86
2021/11/30 12:07:57;;;;;;;1.63;0.80;;;;;;;;;;10512440;28;20040;-84
2021/11/30 12:12:58;;;;;;;2.38;1.70;;;;;;;;;;10515057;28;20028;-83
2021/11/30 12:18:18;;;;;;;3.22;1.88;;;;;;;;;;10515711;28;20028;-83
2021/11/30 12:23:32;;;;;;;2.45;1.40;;;;;;;;;;10510756;28;20192;-83
2021/11/30 12:28:38;;;;;;;2.63;1.52;;;;;;;;;;10514232;28;20149;-82
2021/11/30 12:33:39;;;;;;;2.67;1.90;;;;;;;;;;10514222;28;20086;-84
2021/11/30 12:38:56;;;;;;;3.70;1.48;;;;;;;;;;10523144;28;20032;-83
2021/11/30 12:44:06;;;;;;;3.72;1.63;;;;;;;;;;10520157;28;20051;-87
2021/11/30 12:49:27;;;;;;;5.10;2.20;;;;;;;;;;10512964;28;20035;-90
2021/11/30 12:54:29;;;;;;;4.95;1.85;;;;;;;;;;10528202;28;20024;-86
2021/11/30 12:59:40;;;;;;;3.65;1.30;;;;;;;;;;10530771;28;20408;-84
2021/11/30 13:04:41;;;;;;;3.67;1.60;;;;;;;;;;10515854;28;20033;-85
2021/11/30 13:09:41;;;;;;;;;;;;;;;;;;10518488;28;20068;-88
2021/11/30 13:14:43;;;;;;;4.25;2.28;;;;;;;;;;10516699;28;19967;-90
2021/11/30 13:19:47;;;;;;;2.85;1.70;;;;;;;;;;10544102;28;20044;-89
2021/11/30 13:24:49;;;;;;;2.85;1.73;;;;;;;;;;10549034;28;20024;-87
2021/11/30 13:30:12;;;;;;;3.03;1.23;;;;;;;;;;10529160;28;20127;-87
2021/11/30 13:35:15;;;;;;;4.95;2.95;;;;;;;;;;10515176;28;20021;-88
2021/11/30 13:40:16;;;;;;;6.75;2.00;;;;;;;;;;10513091;28;20032;-86
2021/11/30 13:45:24;;;;;;;2.65;1.13;;;;;;;;;;10512518;28;20078;-88
2021/11/30 13:50:26;;;;;;;6.30;4.90;;;;;;;;;;10519798;28;20517;-87
2021/11/30 13:55:29;;;;;;;2.20;1.00;;;;;;;;;;10521797;28;20509;-87
2021/11/30 14:00:34;;;;;;;4.47;2.47;;;;;;;;;;10534780;28;20024;-84
2021/11/30 14:05:35;;;;;;;3.80;1.42;;;;;;;;;;10514062;28;20029;-86
2021/11/30 14:10:41;;;;;;;2.58;1.60;;;;;;;;;;10514895;28;20037;-88
2021/11/30 14:15:42;;;;;;;3.42;1.50;;;;;;;;;;10523605;28;20062;-88
2021/11/30 14:20:46;;;;;;;2.88;1.52;;;;;;;;;;10517840;28;20028;-87
2021/11/30 14:25:51;;;;;;;2.22;0.90;;;;;;;;;;10512587;28;20052;-85
2021/11/30 14:30:52;;;;;;;1.85;1.27;;;;;;;;;;10512553;28;20023;-87
2021/11/30 14:35:54;;;;;;;;;;;;;;;;;;10509892;28;20024;-87
2021/11/30 14:41:15;;;;;;;2.92;1.45;;;;;;;;;;10510176;28;20466;-85
2021/11/30 14:46:17;;;;;;;1.70;0.93;;;;;;;;;;10514468;28;20375;-86
2021/11/30 14:51:18;;;;;;;2.03;1.20;;;;;;;;;;10511038;28;20270;-86
2021/11/30 14:56:29;;;;;;;3.33;1.52;;;;;;;;;;10509182;28;20119;-86
2021/11/30 15:01:32;;;;;;;3.35;1.30;;;;;;;;;;10510687;28;20060;-84
2021/11/30 15:06:33;;;;;;;2.72;0.90;;;;;;;;;;10512189;28;20028;-85
2021/11/30 15:11:37;;;;;;;;;;;;;;;;;;10511428;28;20064;-85
2021/11/30 15:16:42;;;;;;;1.20;0.70;;;;;;;;;;10507830;28;19904;-85
2021/11/30 15:22:03;;;;;;;1.50;0.80;;;;;;;;;;10509275;28;20033;-85
2021/11/30 15:27:04;;;;;;;;;;;;;;;;;;10504693;28;20025;-85
2021/11/30 15:32:07;;;;;;;2.60;1.70;;;;;;;;;;10507037;28;20362;-85
2021/11/30 15:37:08;;;;;;;3.63;2.25;;;;;;;;;;10509244;28;20036;-86
2021/11/30 15:42:13;;;;;;;3.47;1.90;;;;;;;;;;10503554;28;20405;-86
2021/11/30 15:47:14;;;;;;;3.95;1.60;;;;;;;;;;10501799;28;20024;-88
2021/11/30 15:52:16;;;;;;;2.63;1.63;;;;;;;;;;10512508;28;20024;-85
2021/11/30 15:57:27;;;;;;;2.85;1.38;;;;;;;;;;10506061;28;20032;-85
2021/11/30 16:02:29;;;;;;;2.50;1.70;;;;;;;;;;10519826;28;20056;-86
2021/11/30 16:07:31;;;;;;;3.33;1.92;;;;;;;;;;10507497;28;20037;-85
2021/11/30 16:12:32;;;;;;;3.42;1.77;;;;;;;;;;10524156;28;20025;-89
2021/11/30 16:17:34;;;;;;;2.40;1.55;;;;;;;;;;10534880;28;20048;-87
2021/11/30 16:22:35;;;;;;;2.92;1.60;;;;;;;;;;10532946;28;20029;-86
2021/11/30 16:27:46;;;;;;;2.50;1.70;;;;;;;;;;10516748;28;20475;-86
2021/11/30 16:32:47;;;;;;;2.88;1.40;;;;;;;;;;10527225;28;20082;-85
2021/11/30 16:37:48;;;;;;;;;;;;;;;;;;10539401;28;20054;-89
2021/11/30 16:42:49;;;;;;;1.77;1.40;;;;;;;;;;10524595;28;19904;-88
2021/11/30 16:47:50;;;;;;;3.00;1.50;;;;;;;;;;10519280;28;20090;-85
2021/11/30 16:52:52;;;;;;;;;;;;;;;;;;10541261;28;20032;-87
2021/11/30 16:57:53;;;;;;;2.03;1.20;;;;;;;;;;10522775;28;19904;-88
2021/11/30 17:02:54;;;;;;;2.03;1.10;;;;;;;;;;10524376;28;20505;-87
2021/11/30 17:07:55;;;;;;;;;;;;;;;;;;10526704;28;20043;-88
2021/11/30 17:12:58;;;;;;;2.00;1.33;;;;;;;;;;10519843;28;19958;-87
2021/11/30 17:17:59;;;;;;;2.30;1.40;;;;;;;;;;10519916;28;20038;-87
2021/11/30 17:23:11;;;;;;;3.35;1.90;;;;;;;;;;10524768;28;20021;-86
2021/11/30 17:28:21;;;;;;;3.63;2.50;;;;;;;;;;10530978;28;20024;-85
2021/11/30 17:33:23;;;;;;;1.80;1.30;;;;;;;;;;10529642;28;20020;-86
2021/11/30 17:38:33;;;;;;;6.88;6.07;;;;;;;;;;10526894;28;20094;-87
2021/11/30 17:43:37;;;;;;;2.20;1.63;;;;;;;;;;10526873;28;20076;-86
2021/11/30 17:48:42;;;;;;;2.30;1.80;;;;;;;;;;10524015;28;20035;-86
2021/11/30 17:53:43;;;;;;;2.60;1.90;;;;;;;;;;10522638;28;20020;-86
2021/11/30 17:58:44;;;;;;;7.40;6.68;;;;;;;;;;10525710;28;20027;-86
2021/11/30 18:03:45;;;;;;;;;;;;;;;;;;10521974;28;20032;-85
2021/11/30 18:08:46;;;;;;;3.00;1.88;;;;;;;;;;10518581;28;19975;-85
2021/11/30 18:13:48;;;;;;;3.85;2.15;;;;;;;;;;10524291;28;20025;-86
2021/11/30 18:18:52;;;;;;;;;;;;;;;;;;10518736;28;20064;-86
2021/11/30 18:23:53;;;;;;;1.70;1.50;;;;;;;;;;10526481;28;19904;-86
